createdAt,value
2018-04-07T00:01:01.206Z,1008.79
2018-04-07T00:02:10.620Z,1008.78
2018-04-07T00:03:19.271Z,1008.78
2018-04-07T00:04:27.922Z,1008.78
2018-04-07T00:05:37.104Z,1008.77
2018-04-07T00:06:46.525Z,1008.76
2018-04-07T00:07:56.182Z,1008.74
2018-04-07T00:09:04.817Z,1008.76
2018-04-07T00:10:14.236Z,1008.74
2018-04-07T00:11:22.878Z,1008.77
2018-04-07T00:12:31.529Z,1008.75
2018-04-07T00:13:40.673Z,1008.75
2018-04-07T00:14:49.580Z,1008.78
2018-04-07T00:15:58.463Z,1008.75
2018-04-07T00:17:07.364Z,1008.78
2018-04-07T00:18:16.511Z,1008.79
2018-04-07T00:19:25.911Z,1008.85
2018-04-07T00:20:34.554Z,1008.86
2018-04-07T00:21:43.452Z,1008.88
2018-04-07T00:22:52.875Z,1008.87
2018-04-07T00:24:01.762Z,1008.86
2018-04-07T00:25:10.403Z,1008.89
2018-04-07T00:26:19.039Z,1008.85
2018-04-07T00:27:28.188Z,1008.87
2018-04-07T00:28:37.618Z,1008.91
2018-04-07T00:29:47.035Z,1008.93
2018-04-07T00:30:56.446Z,1008.91
2018-04-07T00:32:05.652Z,1008.93
2018-04-07T00:33:14.540Z,1008.91
2018-04-07T00:34:23.190Z,1008.87
2018-04-07T00:35:32.079Z,1008.93
2018-04-07T00:36:41.254Z,1008.9
2018-04-07T00:37:50.666Z,1008.85
2018-04-07T00:38:59.847Z,1008.86
2018-04-07T00:40:08.742Z,1008.93
2018-04-07T00:41:18.415Z,1008.86
2018-04-07T00:42:27.309Z,1008.85
2018-04-07T00:43:36.458Z,1008.84
2018-04-07T00:44:45.352Z,1008.83
2018-04-07T00:45:54.248Z,1008.78
2018-04-07T00:47:03.155Z,1008.78
2018-04-07T00:48:11.788Z,1008.74
2018-04-07T00:49:20.954Z,1008.73
2018-04-07T00:50:30.123Z,1008.74
2018-04-07T00:51:38.763Z,1008.72
2018-04-07T00:52:47.650Z,1008.7
2018-04-07T00:53:57.077Z,1008.67
2018-04-07T00:55:06.257Z,1008.67
2018-04-07T00:56:15.672Z,1008.65
2018-04-07T00:57:24.601Z,1008.65
2018-04-07T00:58:33.485Z,1008.61
2018-04-07T00:59:42.644Z,1008.6
2018-04-07T01:00:52.051Z,1008.62
2018-04-07T01:02:01.469Z,1008.61
2018-04-07T01:03:10.919Z,1008.56
2018-04-07T01:04:19.805Z,1008.57
2018-04-07T01:05:28.705Z,1008.51
2018-04-07T01:06:37.850Z,1008.48
2018-04-07T01:07:46.750Z,1008.48
2018-04-07T01:08:55.646Z,1008.45
2018-04-07T01:10:05.073Z,1008.44
2018-04-07T01:11:14.510Z,1008.43
2018-04-07T01:12:24.193Z,1008.49
2018-04-07T01:13:33.361Z,1008.48
2018-04-07T01:14:42.526Z,1008.45
2018-04-07T01:15:51.682Z,1008.45
2018-04-07T01:17:00.830Z,1008.46
2018-04-07T01:18:09.709Z,1008.49
2018-04-07T01:19:18.599Z,1008.45
2018-04-07T01:20:27.779Z,1008.44
2018-04-07T01:21:36.914Z,1008.39
2018-04-07T01:22:46.061Z,1008.4
2018-04-07T01:23:55.471Z,1008.37
2018-04-07T01:25:04.104Z,1008.34
2018-04-07T01:26:13.278Z,1008.33
2018-04-07T01:27:22.443Z,1008.27
2018-04-07T01:28:31.321Z,1008.32
2018-04-07T01:29:40.464Z,1008.35
2018-04-07T01:30:49.884Z,1008.34
2018-04-07T01:31:59.326Z,1008.28
2018-04-07T01:33:08.467Z,1008.36
2018-04-07T01:34:17.358Z,1008.4
2018-04-07T01:35:26.248Z,1008.31
2018-04-07T01:36:35.160Z,1008.3
2018-04-07T01:37:44.317Z,1008.29
2018-04-07T01:38:53.220Z,1008.27
2018-04-07T01:40:02.644Z,1008.29
2018-04-07T01:41:11.814Z,1008.24
2018-04-07T01:42:20.709Z,1008.23
2018-04-07T01:43:29.596Z,1008.29
2018-04-07T01:44:38.753Z,1008.28
2018-04-07T01:45:48.421Z,1008.33
2018-04-07T01:46:57.651Z,1008.39
2018-04-07T01:48:06.563Z,1008.37
2018-04-07T01:49:15.459Z,1008.41
2018-04-07T01:50:24.861Z,1008.39
2018-04-07T01:51:33.500Z,1008.39
2018-04-07T01:52:42.395Z,1008.35
2018-04-07T01:53:51.548Z,1008.45
2018-04-07T01:55:00.490Z,1008.44
2018-04-07T01:56:09.114Z,1008.41
2018-04-07T01:57:18.527Z,1008.42
2018-04-07T01:58:27.426Z,1008.42
2018-04-07T01:59:36.053Z,1008.4
2018-04-07T02:00:44.947Z,1008.37
2018-04-07T02:01:54.605Z,1008.39
2018-04-07T02:03:03.771Z,1008.36
2018-04-07T02:04:12.416Z,1008.35
2018-04-07T02:05:21.562Z,1008.36
2018-04-07T02:06:30.450Z,1008.32
2018-04-07T02:07:39.598Z,1008.32
2018-04-07T02:08:48.754Z,1008.32
2018-04-07T02:09:57.412Z,1008.28
2018-04-07T02:11:06.294Z,1008.31
2018-04-07T02:12:15.188Z,1008.32
2018-04-07T02:13:23.830Z,1008.28
2018-04-07T02:14:32.734Z,1008.38
2018-04-07T02:15:41.643Z,1008.36
2018-04-07T02:16:50.545Z,1008.38
2018-04-07T02:17:59.436Z,1008.34
2018-04-07T02:19:08.322Z,1008.37
2018-04-07T02:20:17.219Z,1008.38
2018-04-07T02:21:26.131Z,1008.41
2018-04-07T02:22:35.020Z,1008.41
2018-04-07T02:23:44.447Z,1008.43
2018-04-07T02:24:53.598Z,1008.4
2018-04-07T02:26:02.737Z,1008.38
2018-04-07T02:27:12.175Z,1008.37
2018-04-07T02:28:21.322Z,1008.36
2018-04-07T02:29:30.213Z,1008.29
2018-04-07T02:30:39.351Z,1008.31
2018-04-07T02:31:48.239Z,1008.37
2018-04-07T02:32:57.464Z,1008.31
2018-04-07T02:34:06.614Z,1008.26
2018-04-07T02:35:15.260Z,1008.29
2018-04-07T02:36:24.410Z,1008.24
2018-04-07T02:37:33.331Z,1008.24
2018-04-07T02:38:42.504Z,1008.23
2018-04-07T02:39:51.660Z,1008.27
2018-04-07T02:41:00.806Z,1008.24
2018-04-07T02:42:09.431Z,1008.24
2018-04-07T02:43:18.614Z,1008.16
2018-04-07T02:44:28.047Z,1008.11
2018-04-07T02:45:36.936Z,1008.1
2018-04-07T02:46:45.841Z,1008.04
2018-04-07T02:47:54.989Z,1008.03
2018-04-07T02:49:04.135Z,1008.05
2018-04-07T02:50:13.332Z,1008.01
2018-04-07T02:51:22.650Z,1008.01
2018-04-07T02:52:31.822Z,1008.03
2018-04-07T02:53:41.224Z,1008.03
2018-04-07T02:54:50.447Z,1007.98
2018-04-07T02:55:59.925Z,1007.95
2018-04-07T02:57:09.135Z,1007.93
2018-04-07T02:58:18.554Z,1007.94
2018-04-07T02:59:27.724Z,1007.91
2018-04-07T03:00:37.388Z,1007.89
2018-04-07T03:01:46.598Z,1007.86
2018-04-07T03:02:55.749Z,1007.9
2018-04-07T03:04:04.908Z,1007.92
2018-04-07T03:05:14.594Z,1007.88
2018-04-07T03:06:23.732Z,1007.88
2018-04-07T03:07:32.649Z,1007.9
2018-04-07T03:08:41.807Z,1007.88
2018-04-07T03:09:50.708Z,1007.87
2018-04-07T03:10:59.600Z,1007.88
2018-04-07T03:12:08.231Z,1007.88
2018-04-07T03:13:17.398Z,1007.92
2018-04-07T03:14:26.546Z,1007.94
2018-04-07T03:15:35.442Z,1007.93
2018-04-07T03:16:44.600Z,1007.97
2018-04-07T03:17:53.483Z,1007.99
2018-04-07T03:19:02.393Z,1007.94
2018-04-07T03:20:11.555Z,1007.97
2018-04-07T03:21:20.508Z,1007.98
2018-04-07T03:22:29.422Z,1008
2018-04-07T03:23:38.829Z,1007.93
2018-04-07T03:24:47.771Z,1007.91
2018-04-07T03:25:56.915Z,1007.98
2018-04-07T03:27:05.826Z,1007.98
2018-04-07T03:28:14.721Z,1007.98
2018-04-07T03:29:23.635Z,1007.91
2018-04-07T03:30:32.532Z,1007.94
2018-04-07T03:31:41.675Z,1007.92
2018-04-07T03:32:51.534Z,1007.93
2018-04-07T03:34:00.421Z,1007.89
2018-04-07T03:35:09.312Z,1007.89
2018-04-07T03:36:18.462Z,1007.92
2018-04-07T03:37:27.359Z,1007.93
2018-04-07T03:38:36.502Z,1007.96
2018-04-07T03:39:45.393Z,1007.94
2018-04-07T03:40:54.537Z,1007.95
2018-04-07T03:42:03.423Z,1007.95
2018-04-07T03:43:12.591Z,1007.95
2018-04-07T03:44:21.279Z,1007.94
2018-04-07T03:45:30.168Z,1007.97
2018-04-07T03:46:39.055Z,1007.97
2018-04-07T03:47:48.461Z,1007.98
2018-04-07T03:48:57.348Z,1007.93
2018-04-07T03:50:06.490Z,1007.94
2018-04-07T03:51:15.639Z,1007.91
2018-04-07T03:52:25.047Z,1007.86
2018-04-07T03:53:34.203Z,1007.86
2018-04-07T03:54:43.164Z,1007.87
2018-04-07T03:55:52.060Z,1007.85
2018-04-07T03:57:01.199Z,1007.89
2018-04-07T03:58:10.092Z,1007.82
2018-04-07T03:59:18.983Z,1007.81
2018-04-07T04:00:27.878Z,1007.82
2018-04-07T04:01:37.031Z,1007.9
2018-04-07T04:02:46.235Z,1007.9
2018-04-07T04:03:55.639Z,1007.88
2018-04-07T04:05:05.049Z,1007.9
2018-04-07T04:06:14.723Z,1007.93
2018-04-07T04:07:23.860Z,1007.91
2018-04-07T04:08:32.754Z,1007.97
2018-04-07T04:09:41.645Z,1007.97
2018-04-07T04:10:50.544Z,1008.03
2018-04-07T04:11:59.943Z,1008.01
2018-04-07T04:13:08.569Z,1008.05
2018-04-07T04:14:17.526Z,1008.03
2018-04-07T04:15:26.399Z,1007.99
2018-04-07T04:16:35.046Z,1007.99
2018-04-07T04:17:44.527Z,1007.96
2018-04-07T04:18:53.456Z,1007.95
2018-04-07T04:20:02.343Z,1007.91
2018-04-07T04:21:11.824Z,1007.94
2018-04-07T04:22:20.710Z,1007.85
2018-04-07T04:23:30.147Z,1007.85
2018-04-07T04:24:39.318Z,1007.82
2018-04-07T04:25:48.727Z,1007.8
2018-04-07T04:26:57.934Z,1007.82
2018-04-07T04:28:07.091Z,1007.81
2018-04-07T04:29:16.010Z,1007.78
2018-04-07T04:30:25.676Z,1007.76
2018-04-07T04:31:35.104Z,1007.72
2018-04-07T04:32:44.779Z,1007.72
2018-04-07T04:33:53.672Z,1007.72
2018-04-07T04:35:03.352Z,1007.71
2018-04-07T04:36:12.518Z,1007.7
2018-04-07T04:37:21.681Z,1007.67
2018-04-07T04:38:30.580Z,1007.67
2018-04-07T04:39:39.527Z,1007.72
2018-04-07T04:40:48.414Z,1007.64
2018-04-07T04:41:57.323Z,1007.66
2018-04-07T04:43:05.993Z,1007.69
2018-04-07T04:44:15.412Z,1007.65
2018-04-07T04:45:24.853Z,1007.67
2018-04-07T04:46:33.508Z,1007.69
2018-04-07T04:47:42.661Z,1007.66
2018-04-07T04:48:51.303Z,1007.61
2018-04-07T04:49:59.988Z,1007.65
2018-04-07T04:51:09.155Z,1007.64
2018-04-07T04:52:18.324Z,1007.62
2018-04-07T04:53:27.485Z,1007.64
2018-04-07T04:54:36.262Z,1007.63
2018-04-07T04:55:45.196Z,1007.62
2018-04-07T04:56:53.890Z,1007.67
2018-04-07T04:58:03.042Z,1007.66
2018-04-07T04:59:11.669Z,1007.65
2018-04-07T05:00:21.070Z,1007.67
2018-04-07T05:01:30.240Z,1007.68
2018-04-07T05:02:39.135Z,1007.7
2018-04-07T05:03:48.343Z,1007.74
2018-04-07T05:04:57.270Z,1007.73
2018-04-07T05:06:06.872Z,1007.72
2018-04-07T05:07:15.530Z,1007.72
2018-04-07T05:08:24.761Z,1007.75
2018-04-07T05:09:33.985Z,1007.74
2018-04-07T05:10:43.411Z,1007.7
2018-04-07T05:11:52.058Z,1007.69
2018-04-07T05:13:01.306Z,1007.7
2018-04-07T05:14:09.953Z,1007.71
2018-04-07T05:15:18.596Z,1007.68
2018-04-07T05:16:27.229Z,1007.63
2018-04-07T05:17:36.652Z,1007.6
2018-04-07T05:18:45.300Z,1007.59
2018-04-07T05:19:54.206Z,1007.59
2018-04-07T05:21:03.122Z,1007.63
2018-04-07T05:22:12.305Z,1007.59
2018-04-07T05:23:21.224Z,1007.56
2018-04-07T05:24:30.150Z,1007.6
2018-04-07T05:25:39.551Z,1007.61
2018-04-07T05:26:48.957Z,1007.63
2018-04-07T05:27:58.134Z,1007.63
2018-04-07T05:29:07.282Z,1007.6
2018-04-07T05:30:16.437Z,1007.64
2018-04-07T05:31:25.585Z,1007.61
2018-04-07T05:32:35.049Z,1007.58
2018-04-07T05:33:44.217Z,1007.59
2018-04-07T05:34:53.364Z,1007.63
2018-04-07T05:36:02.502Z,1007.68
2018-04-07T05:37:11.928Z,1007.66
2018-04-07T05:38:21.128Z,1007.7
2018-04-07T05:39:30.536Z,1007.69
2018-04-07T05:40:40.193Z,1007.69
2018-04-07T05:41:49.609Z,1007.77
2018-04-07T05:42:58.243Z,1007.77
2018-04-07T05:44:07.149Z,1007.81
2018-04-07T05:45:16.299Z,1007.77
2018-04-07T05:46:25.716Z,1007.81
2018-04-07T05:47:34.859Z,1007.78
2018-04-07T05:48:44.038Z,1007.73
2018-04-07T05:49:53.193Z,1007.77
2018-04-07T05:51:02.632Z,1007.75
2018-04-07T05:52:11.792Z,1007.7
2018-04-07T05:53:20.933Z,1007.75
2018-04-07T05:54:30.852Z,1007.68
2018-04-07T05:55:40.342Z,1007.65
2018-04-07T05:56:49.538Z,1007.64
2018-04-07T05:57:58.937Z,1007.61
2018-04-07T05:59:08.077Z,1007.61
2018-04-07T06:00:17.012Z,1007.66
2018-04-07T06:01:25.892Z,1007.67
2018-04-07T06:02:35.064Z,1007.72
2018-04-07T06:03:43.951Z,1007.74
2018-04-07T06:04:52.865Z,1007.76
2018-04-07T06:06:02.023Z,1007.79
2018-04-07T06:07:11.430Z,1007.8
2018-04-07T06:08:20.339Z,1007.81
2018-04-07T06:09:29.226Z,1007.82
2018-04-07T06:10:38.399Z,1007.83
2018-04-07T06:11:47.088Z,1007.87
2018-04-07T06:12:55.712Z,1007.88
2018-04-07T06:14:04.863Z,1007.92
2018-04-07T06:15:14.026Z,1007.88
2018-04-07T06:16:23.180Z,1007.9
2018-04-07T06:17:32.320Z,1007.92
2018-04-07T06:18:42.002Z,1007.85
2018-04-07T06:19:51.406Z,1007.91
2018-04-07T06:21:00.539Z,1007.86
2018-04-07T06:22:09.698Z,1007.86
2018-04-07T06:23:18.328Z,1007.84
2018-04-07T06:24:27.488Z,1007.83
2018-04-07T06:25:36.106Z,1007.82
2018-04-07T06:26:45.021Z,1007.87
2018-04-07T06:27:54.173Z,1007.9
2018-04-07T06:29:03.316Z,1007.9
2018-04-07T06:30:12.461Z,1007.9
2018-04-07T06:31:21.623Z,1007.95
2018-04-07T06:32:30.767Z,1007.88
2018-04-07T06:33:39.389Z,1007.91
2018-04-07T06:34:48.320Z,1007.84
2018-04-07T06:35:57.541Z,1007.87
2018-04-07T06:37:06.690Z,1007.88
2018-04-07T06:38:15.838Z,1007.82
2018-04-07T06:39:24.992Z,1007.84
2018-04-07T06:40:34.223Z,1007.81
2018-04-07T06:41:43.431Z,1007.81
2018-04-07T06:42:52.580Z,1007.87
2018-04-07T06:44:01.473Z,1007.88
2018-04-07T06:45:10.737Z,1007.82
2018-04-07T06:46:19.363Z,1007.83
2018-04-07T06:47:28.254Z,1007.83
2018-04-07T06:48:37.446Z,1007.84
2018-04-07T06:49:46.348Z,1007.79
2018-04-07T06:50:55.599Z,1007.88
2018-04-07T06:52:04.509Z,1007.88
2018-04-07T06:53:13.664Z,1007.89
2018-04-07T06:54:22.556Z,1007.92
2018-04-07T06:55:31.712Z,1007.9
2018-04-07T06:56:40.609Z,1007.88
2018-04-07T06:57:49.251Z,1007.85
2018-04-07T06:58:58.162Z,1007.86
2018-04-07T07:00:07.087Z,1007.87
2018-04-07T07:01:16.768Z,1007.84
2018-04-07T07:02:25.674Z,1007.84
2018-04-07T07:03:34.334Z,1007.86
2018-04-07T07:04:42.984Z,1007.84
2018-04-07T07:05:52.139Z,1007.82
2018-04-07T07:07:01.035Z,1007.83
2018-04-07T07:08:10.445Z,1007.81
2018-04-07T07:09:19.864Z,1007.83
2018-04-07T07:10:28.754Z,1007.84
2018-04-07T07:11:37.907Z,1007.8
2018-04-07T07:12:46.810Z,1007.82
2018-04-07T07:13:55.964Z,1007.82
2018-04-07T07:15:05.118Z,1007.78
2018-04-07T07:16:13.996Z,1007.79
2018-04-07T07:17:22.634Z,1007.8
2018-04-07T07:18:31.529Z,1007.73
2018-04-07T07:19:40.672Z,1007.7
2018-04-07T07:20:50.073Z,1007.68
2018-04-07T07:21:59.220Z,1007.78
2018-04-07T07:23:07.869Z,1007.74
2018-04-07T07:24:17.032Z,1007.72
2018-04-07T07:25:26.023Z,1007.71
2018-04-07T07:26:35.187Z,1007.7
2018-04-07T07:27:44.395Z,1007.71
2018-04-07T07:28:53.306Z,1007.72
2018-04-07T07:30:02.813Z,1007.7
2018-04-07T07:31:12.261Z,1007.75
2018-04-07T07:32:20.903Z,1007.7
2018-04-07T07:33:29.795Z,1007.77
2018-04-07T07:34:39.229Z,1007.78
2018-04-07T07:35:47.908Z,1007.78
2018-04-07T07:36:57.075Z,1007.76
2018-04-07T07:38:05.775Z,1007.68
2018-04-07T07:39:14.671Z,1007.75
2018-04-07T07:40:23.304Z,1007.7
2018-04-07T07:41:32.458Z,1007.7
2018-04-07T07:42:41.590Z,1007.71
2018-04-07T07:43:50.243Z,1007.72
2018-04-07T07:44:59.155Z,1007.65
2018-04-07T07:46:08.295Z,1007.68
2018-04-07T07:47:17.440Z,1007.7
2018-04-07T07:48:27.133Z,1007.68
2018-04-07T07:49:36.329Z,1007.7
2018-04-07T07:50:45.528Z,1007.64
2018-04-07T07:51:55.009Z,1007.63
2018-04-07T07:53:04.419Z,1007.6
2018-04-07T07:54:13.555Z,1007.67
2018-04-07T07:55:22.439Z,1007.62
2018-04-07T07:56:31.082Z,1007.63
2018-04-07T07:57:39.715Z,1007.59
2018-04-07T07:58:48.598Z,1007.63
2018-04-07T07:59:57.946Z,1007.62
2018-04-07T08:01:06.528Z,1007.64
2018-04-07T08:02:15.168Z,1007.67
2018-04-07T08:03:24.305Z,1007.64
2018-04-07T08:04:33.736Z,1007.58
2018-04-07T08:05:43.198Z,1007.58
2018-04-07T08:06:52.088Z,1007.57
2018-04-07T08:08:01.484Z,1007.56
2018-04-07T08:09:11.149Z,1007.66
2018-04-07T08:10:20.043Z,1007.59
2018-04-07T08:11:28.941Z,1007.58
2018-04-07T08:12:37.897Z,1007.61
2018-04-07T08:13:46.792Z,1007.61
2018-04-07T08:14:56.464Z,1007.63
2018-04-07T08:16:05.085Z,1007.63
2018-04-07T08:17:13.974Z,1007.65
2018-04-07T08:18:23.179Z,1007.64
2018-04-07T08:19:32.743Z,1007.6
2018-04-07T08:20:42.542Z,1007.54
2018-04-07T08:21:51.497Z,1007.6
2018-04-07T08:23:00.429Z,1007.57
2018-04-07T08:24:09.516Z,1007.52
2018-04-07T08:25:18.402Z,1007.53
2018-04-07T08:26:27.290Z,1007.63
2018-04-07T08:27:35.912Z,1007.54
2018-04-07T08:28:44.836Z,1007.57
2018-04-07T08:29:53.984Z,1007.54
2018-04-07T08:31:02.897Z,1007.53
2018-04-07T08:32:12.671Z,1007.57
2018-04-07T08:33:21.824Z,1007.52
2018-04-07T08:34:30.738Z,1007.53
2018-04-07T08:35:39.627Z,1007.55
2018-04-07T08:36:49.029Z,1007.52
2018-04-07T08:37:58.176Z,1007.55
2018-04-07T08:39:07.067Z,1007.58
2018-04-07T08:40:16.261Z,1007.59
2018-04-07T08:41:25.178Z,1007.62
2018-04-07T08:42:34.067Z,1007.61
2018-04-07T08:43:43.204Z,1007.59
2018-04-07T08:44:52.091Z,1007.61
2018-04-07T08:46:01.511Z,1007.54
2018-04-07T08:47:10.406Z,1007.56
2018-04-07T08:48:19.592Z,1007.57
2018-04-07T08:49:28.602Z,1007.59
2018-04-07T08:50:38.063Z,1007.6
2018-04-07T08:51:48.605Z,1007.63
2018-04-07T08:52:57.579Z,1007.66
2018-04-07T08:54:07.029Z,1007.71
2018-04-07T08:55:15.956Z,1007.72
2018-04-07T08:56:24.917Z,1007.74
2018-04-07T08:57:34.453Z,1007.75
2018-04-07T08:58:43.374Z,1007.74
2018-04-07T08:59:52.608Z,1007.72
2018-04-07T09:01:01.664Z,1007.73
2018-04-07T09:02:10.822Z,1007.71
2018-04-07T09:03:19.450Z,1007.66
2018-04-07T09:04:28.591Z,1007.68
2018-04-07T09:05:38.022Z,1007.61
2018-04-07T09:06:47.226Z,1007.64
2018-04-07T09:07:56.145Z,1007.58
2018-04-07T09:09:05.614Z,1007.6
2018-04-07T09:10:15.374Z,1007.59
2018-04-07T09:11:24.493Z,1007.62
2018-04-07T09:12:33.661Z,1007.54
2018-04-07T09:13:42.556Z,1007.56
2018-04-07T09:14:51.489Z,1007.46
2018-04-07T09:16:00.384Z,1007.48
2018-04-07T09:17:09.782Z,1007.48
2018-04-07T09:18:19.191Z,1007.42
2018-04-07T09:19:28.356Z,1007.41
2018-04-07T09:20:36.975Z,1007.43
2018-04-07T09:21:46.144Z,1007.44
2018-04-07T09:22:55.291Z,1007.37
2018-04-07T09:24:04.783Z,1007.34
2018-04-07T09:25:14.467Z,1007.29
2018-04-07T09:26:23.649Z,1007.27
2018-04-07T09:27:32.554Z,1007.22
2018-04-07T09:28:41.712Z,1007.17
2018-04-07T09:29:50.645Z,1007.25
2018-04-07T09:30:59.311Z,1007.23
2018-04-07T09:32:08.471Z,1007.26
2018-04-07T09:33:17.879Z,1007.28
2018-04-07T09:34:27.293Z,1007.27
2018-04-07T09:35:36.447Z,1007.27
2018-04-07T09:36:45.633Z,1007.33
2018-04-07T09:37:55.059Z,1007.31
2018-04-07T09:39:04.477Z,1007.22
2018-04-07T09:40:13.627Z,1007.29
2018-04-07T09:41:22.519Z,1007.34
2018-04-07T09:42:31.404Z,1007.26
2018-04-07T09:43:40.315Z,1007.29
2018-04-07T09:44:49.215Z,1007.24
2018-04-07T09:45:57.862Z,1007.23
2018-04-07T09:47:07.067Z,1007.24
2018-04-07T09:48:16.182Z,1007.17
2018-04-07T09:49:25.362Z,1007.16
2018-04-07T09:50:34.292Z,1007.17
2018-04-07T09:51:43.460Z,1007.2
2018-04-07T09:52:52.897Z,1007.17
2018-04-07T09:54:02.083Z,1007.23
2018-04-07T09:55:10.989Z,1007.17
2018-04-07T09:56:19.976Z,1007.11
2018-04-07T09:57:28.916Z,1007.11
2018-04-07T09:58:37.833Z,1007.21
2018-04-07T09:59:46.791Z,1007.14
2018-04-07T10:00:55.366Z,1007.14
2018-04-07T10:02:04.783Z,1007.13
2018-04-07T10:03:13.930Z,1007.09
2018-04-07T10:04:22.886Z,1007.13
2018-04-07T10:05:31.536Z,1007.08
2018-04-07T10:06:40.958Z,1007.07
2018-04-07T10:07:49.851Z,1007.07
2018-04-07T10:08:58.754Z,1007.1
2018-04-07T10:10:08.433Z,1007.1
2018-04-07T10:11:17.846Z,1007.06
2018-04-07T10:12:26.999Z,1006.99
2018-04-07T10:13:36.461Z,1007.07
2018-04-07T10:14:45.632Z,1007.09
2018-04-07T10:15:54.325Z,1007.05
2018-04-07T10:17:02.998Z,1007.01
2018-04-07T10:18:12.136Z,1007.04
2018-04-07T10:19:21.033Z,1006.97
2018-04-07T10:20:30.445Z,1007.04
2018-04-07T10:21:39.082Z,1007.05
2018-04-07T10:22:48.501Z,1007.01
2018-04-07T10:23:57.657Z,1006.98
2018-04-07T10:25:07.121Z,1006.97
2018-04-07T10:26:16.261Z,1006.95
2018-04-07T10:27:25.656Z,1006.96
2018-04-07T10:28:34.296Z,1006.89
2018-04-07T10:29:43.233Z,1006.89
2018-04-07T10:30:52.401Z,1006.91
2018-04-07T10:32:01.306Z,1006.93
2018-04-07T10:33:10.846Z,1006.96
2018-04-07T10:34:19.786Z,1006.91
2018-04-07T10:35:28.933Z,1006.95
2018-04-07T10:36:37.838Z,1006.94
2018-04-07T10:37:46.734Z,1007
2018-04-07T10:38:55.614Z,1006.95
2018-04-07T10:40:05.208Z,1006.89
2018-04-07T10:41:14.095Z,1006.94
2018-04-07T10:42:23.241Z,1006.93
2018-04-07T10:43:32.422Z,1006.9
2018-04-07T10:44:41.318Z,1006.9
2018-04-07T10:45:50.731Z,1006.92
2018-04-07T10:46:59.630Z,1006.84
2018-04-07T10:48:09.001Z,1006.88
2018-04-07T10:49:18.406Z,1006.89
2018-04-07T10:50:27.111Z,1006.81
2018-04-07T10:51:35.750Z,1006.8
2018-04-07T10:52:44.744Z,1006.79
2018-04-07T10:53:53.702Z,1006.74
2018-04-07T10:55:02.884Z,1006.69
2018-04-07T10:56:11.539Z,1006.69
2018-04-07T10:57:20.432Z,1006.68
2018-04-07T10:58:29.336Z,1006.72
2018-04-07T10:59:38.219Z,1006.64
2018-04-07T11:00:47.112Z,1006.64
2018-04-07T11:01:55.747Z,1006.64
2018-04-07T11:03:04.897Z,1006.62
2018-04-07T11:04:14.053Z,1006.64
2018-04-07T11:05:22.955Z,1006.6
2018-04-07T11:06:32.112Z,1006.58
2018-04-07T11:07:41.032Z,1006.61
2018-04-07T11:08:49.944Z,1006.61
2018-04-07T11:09:59.350Z,1006.65
2018-04-07T11:11:08.553Z,1006.64
2018-04-07T11:12:17.981Z,1006.61
2018-04-07T11:13:27.394Z,1006.59
2018-04-07T11:14:37.090Z,1006.55
2018-04-07T11:15:45.978Z,1006.57
2018-04-07T11:16:54.874Z,1006.56
2018-04-07T11:18:04.305Z,1006.61
2018-04-07T11:19:13.008Z,1006.56
2018-04-07T11:20:22.166Z,1006.53
2018-04-07T11:21:31.066Z,1006.48
2018-04-07T11:22:40.211Z,1006.53
2018-04-07T11:23:49.416Z,1006.5
2018-04-07T11:24:58.571Z,1006.5
2018-04-07T11:26:07.475Z,1006.49
2018-04-07T11:27:16.634Z,1006.48
2018-04-07T11:28:25.943Z,1006.49
2018-04-07T11:29:35.099Z,1006.45
2018-04-07T11:30:44.252Z,1006.5
2018-04-07T11:31:53.385Z,1006.5
2018-04-07T11:33:02.595Z,1006.47
2018-04-07T11:34:12.064Z,1006.47
2018-04-07T11:35:21.475Z,1006.45
2018-04-07T11:36:30.637Z,1006.4
2018-04-07T11:37:39.546Z,1006.39
2018-04-07T11:38:48.437Z,1006.35
2018-04-07T11:39:57.332Z,1006.37
2018-04-07T11:41:05.970Z,1006.36
2018-04-07T11:42:15.119Z,1006.34
2018-04-07T11:43:23.747Z,1006.28
2018-04-07T11:44:32.380Z,1006.43
2018-04-07T11:45:41.814Z,1006.3
2018-04-07T11:46:50.712Z,1006.35
2018-04-07T11:47:59.887Z,1006.3
2018-04-07T11:49:09.362Z,1006.26
2018-04-07T11:50:18.528Z,1006.27
2018-04-07T11:51:27.428Z,1006.33
2018-04-07T11:52:36.346Z,1006.27
2018-04-07T11:53:45.268Z,1006.3
2018-04-07T11:54:54.158Z,1006.26
2018-04-07T11:56:03.309Z,1006.24
2018-04-07T11:57:12.754Z,1006.24
2018-04-07T11:58:21.656Z,1006.2
2018-04-07T11:59:30.565Z,1006.17
2018-04-07T12:00:39.972Z,1006.21
2018-04-07T12:01:49.444Z,1006.2
2018-04-07T12:02:58.607Z,1006.18
2018-04-07T12:04:07.496Z,1006.2
2018-04-07T12:05:16.392Z,1006.17
2018-04-07T12:06:25.856Z,1006.17
2018-04-07T12:07:35.288Z,1006.19
2018-04-07T12:08:44.210Z,1006.16
2018-04-07T12:09:52.894Z,1006.21
2018-04-07T12:11:01.797Z,1006.16
2018-04-07T12:12:10.709Z,1006.12
2018-04-07T12:13:19.863Z,1006.14
2018-04-07T12:14:28.506Z,1006.1
2018-04-07T12:15:37.419Z,1006.1
2018-04-07T12:16:46.317Z,1006.12
2018-04-07T12:17:55.740Z,1006.08
2018-04-07T12:19:04.893Z,1006.06
2018-04-07T12:20:13.787Z,1006.08
2018-04-07T12:21:22.444Z,1006.09
2018-04-07T12:22:31.336Z,1006.03
2018-04-07T12:23:40.528Z,1006.02
2018-04-07T12:24:49.427Z,1006.02
2018-04-07T12:25:58.575Z,1005.98
2018-04-07T12:27:07.473Z,1005.98
2018-04-07T12:28:16.620Z,1005.95
2018-04-07T12:29:26.294Z,1005.92
2018-04-07T12:30:35.191Z,1005.96
2018-04-07T12:31:44.367Z,1005.91
2018-04-07T12:32:53.260Z,1005.9
2018-04-07T12:34:02.152Z,1005.87
2018-04-07T12:35:11.295Z,1005.88
2018-04-07T12:36:20.188Z,1005.81
2018-04-07T12:37:29.349Z,1005.83
2018-04-07T12:38:38.527Z,1005.8
2018-04-07T12:39:47.954Z,1005.74
2018-04-07T12:40:57.122Z,1005.79
2018-04-07T12:42:06.554Z,1005.73
2018-04-07T12:43:15.717Z,1005.76
2018-04-07T12:44:24.625Z,1005.74
2018-04-07T12:45:34.078Z,1005.72
2018-04-07T12:46:42.985Z,1005.7
2018-04-07T12:47:52.146Z,1005.73
2018-04-07T12:49:01.066Z,1005.68
2018-04-07T12:50:09.965Z,1005.64
2018-04-07T12:51:19.129Z,1005.63
2018-04-07T12:52:28.279Z,1005.66
2018-04-07T12:53:36.914Z,1005.57
2018-04-07T12:54:45.574Z,1005.57
2018-04-07T12:55:54.542Z,1005.59
2018-04-07T12:57:03.451Z,1005.55
2018-04-07T12:58:12.614Z,1005.56
2018-04-07T12:59:21.512Z,1005.52
2018-04-07T13:00:30.764Z,1005.5
2018-04-07T13:01:39.554Z,1005.47
2018-04-07T13:02:48.477Z,1005.39
2018-04-07T13:03:57.900Z,1005.41
2018-04-07T13:05:07.567Z,1005.42
2018-04-07T13:06:16.469Z,1005.38
2018-04-07T13:07:25.377Z,1005.36
2018-04-07T13:08:34.521Z,1005.35
2018-04-07T13:09:43.188Z,1005.29
2018-04-07T13:10:52.350Z,1005.3
2018-04-07T13:12:01.251Z,1005.29
2018-04-07T13:13:10.171Z,1005.25
2018-04-07T13:14:19.594Z,1005.24
2018-04-07T13:15:28.558Z,1005.25
2018-04-07T13:16:37.786Z,1005.26
2018-04-07T13:17:46.933Z,1005.21
2018-04-07T13:18:55.840Z,1005.28
2018-04-07T13:20:05.050Z,1005.23
2018-04-07T13:21:14.453Z,1005.21
2018-04-07T13:22:23.921Z,1005.16
2018-04-07T13:23:33.330Z,1005.14
2018-04-07T13:24:43.006Z,1005.18
2018-04-07T13:25:51.647Z,1005.18
2018-04-07T13:27:00.822Z,1005.12
2018-04-07T13:28:09.737Z,1005.07
2018-04-07T13:29:18.646Z,1005.05
2018-04-07T13:30:27.814Z,1005.04
2018-04-07T13:31:36.713Z,1004.96
2018-04-07T13:32:45.647Z,1004.99
2018-04-07T13:33:54.543Z,1004.95
2018-04-07T13:35:04.218Z,1004.97
2018-04-07T13:36:13.143Z,1004.95
2018-04-07T13:37:22.294Z,1004.94
2018-04-07T13:38:31.187Z,1004.9
2018-04-07T13:39:40.096Z,1004.9
2018-04-07T13:40:49.239Z,1004.9
2018-04-07T13:41:58.133Z,1004.91
2018-04-07T13:43:07.603Z,1004.87
2018-04-07T13:44:17.285Z,1004.82
2018-04-07T13:45:26.688Z,1004.86
2018-04-07T13:46:35.563Z,1004.82
2018-04-07T13:47:44.457Z,1004.82
2018-04-07T13:48:53.350Z,1004.78
2018-04-07T13:50:02.226Z,1004.78
2018-04-07T13:51:11.126Z,1004.7
2018-04-07T13:52:20.023Z,1004.7
2018-04-07T13:53:28.646Z,1004.71
2018-04-07T13:54:37.810Z,1004.72
2018-04-07T13:55:46.717Z,1004.7
2018-04-07T13:56:55.596Z,1004.67
2018-04-07T13:58:04.489Z,1004.68
2018-04-07T13:59:13.119Z,1004.68